createdAt,value
2016-03-19T00:00:55.392Z,0
2016-03-19T00:01:55.301Z,0
2016-03-19T00:02:55.287Z,0
2016-03-19T00:03:55.337Z,0
2016-03-19T00:04:55.309Z,0
2016-03-19T00:05:55.280Z,0
2016-03-19T00:06:55.330Z,0
2016-03-19T00:07:55.269Z,0
2016-03-19T00:08:55.241Z,0
2016-03-19T00:09:55.275Z,0
2016-03-19T00:10:55.325Z,0
2016-03-19T00:11:55.108Z,0
2016-03-19T00:12:55.252Z,0
2016-03-19T00:13:55.271Z,0
2016-03-19T00:14:55.304Z,0
2016-03-19T00:15:55.244Z,0
2016-03-19T00:16:55.216Z,0
2016-03-19T00:17:55.249Z,0
2016-03-19T00:18:55.269Z,0
2016-03-19T00:19:55.255Z,0
2016-03-19T00:20:55.258Z,0
2016-03-19T00:21:55.276Z,0
2016-03-19T00:22:55.263Z,0
2016-03-19T00:23:55.204Z,0
2016-03-19T00:24:55.222Z,0
2016-03-19T00:25:55.209Z,0
2016-03-19T00:26:55.071Z,0
2016-03-19T00:27:55.215Z,0
2016-03-19T00:28:54.420Z,0
2016-03-19T00:29:55.235Z,0
2016-03-19T00:30:55.207Z,0
2016-03-19T00:31:55.179Z,0
2016-03-19T00:32:55.181Z,0
2016-03-19T00:33:55.278Z,0
2016-03-19T00:34:55.187Z,0
2016-03-19T00:35:55.158Z,0
2016-03-19T00:36:55.223Z,0
2016-03-19T00:37:55.178Z,0
2016-03-19T00:38:55.167Z,0
2016-03-19T00:39:55.216Z,0
2016-03-19T00:40:55.172Z,0
2016-03-19T00:41:55.221Z,0
2016-03-19T00:42:55.192Z,0
2016-03-19T00:43:55.163Z,0
2016-03-19T00:44:55.120Z,0
2016-03-19T00:45:55.139Z,0
2016-03-19T00:46:55.203Z,0
2016-03-19T00:47:55.159Z,0
2016-03-19T00:48:55.146Z,0
2016-03-19T00:49:55.118Z,0
2016-03-19T00:50:55.121Z,0
2016-03-19T00:51:55.030Z,0
2016-03-19T00:52:55.110Z,0
2016-03-19T00:53:55.082Z,0
2016-03-19T00:54:55.116Z,0
2016-03-19T00:55:55.118Z,0
2016-03-19T00:56:55.418Z,0
2016-03-19T00:57:55.108Z,0
2016-03-19T00:58:55.095Z,0
2016-03-19T00:59:55.082Z,0
2016-03-19T01:00:55.069Z,0
2016-03-19T01:01:55.087Z,0
2016-03-19T01:02:55.074Z,0
2016-03-19T01:03:55.108Z,0
2016-03-19T01:04:55.049Z,0
2016-03-19T01:05:55.082Z,0
2016-03-19T01:06:55.085Z,0
2016-03-19T01:07:54.917Z,0
2016-03-19T01:08:55.066Z,0
2016-03-19T01:09:55.028Z,0
2016-03-19T01:10:54.881Z,0
2016-03-19T01:11:55.046Z,0
2016-03-19T01:12:55.008Z,0
2016-03-19T01:13:54.959Z,0
2016-03-19T01:14:54.989Z,0
2016-03-19T01:15:54.942Z,0
2016-03-19T01:16:54.972Z,0
2016-03-19T01:17:54.971Z,0
2016-03-19T01:18:54.957Z,0
2016-03-19T01:19:54.943Z,0
2016-03-19T01:20:54.928Z,0
2016-03-19T01:21:54.930Z,0
2016-03-19T01:22:54.932Z,0
2016-03-19T01:23:54.934Z,0
2016-03-19T01:24:54.936Z,0
2016-03-19T01:25:54.908Z,0
2016-03-19T01:26:54.910Z,0
2016-03-19T01:27:54.897Z,0
2016-03-19T01:28:54.915Z,0
2016-03-19T01:29:54.918Z,0
2016-03-19T01:30:54.874Z,0
2016-03-19T01:31:54.892Z,0
2016-03-19T01:32:54.863Z,0
2016-03-19T01:33:54.897Z,0
2016-03-19T01:34:54.853Z,0
2016-03-19T01:35:54.840Z,0
2016-03-19T01:36:54.890Z,0
2016-03-19T01:37:54.861Z,0
2016-03-19T01:38:54.708Z,0
2016-03-19T01:39:54.882Z,0
2016-03-19T01:40:54.838Z,0
2016-03-19T01:41:54.841Z,0
2016-03-19T01:42:54.858Z,0
2016-03-19T01:43:54.861Z,0
2016-03-19T01:44:54.817Z,0
2016-03-19T01:45:54.836Z,0
2016-03-19T01:46:54.838Z,0
2016-03-19T01:47:54.794Z,0
2016-03-19T01:48:54.829Z,0
2016-03-19T01:49:54.831Z,0
2016-03-19T01:50:54.834Z,0
2016-03-19T01:51:54.804Z,0
2016-03-19T01:52:54.840Z,0
2016-03-19T01:53:54.795Z,0
2016-03-19T01:54:54.782Z,0
2016-03-19T01:55:54.800Z,0
2016-03-19T01:56:54.818Z,0
2016-03-19T01:57:54.837Z,0
2016-03-19T01:58:54.792Z,0
2016-03-19T01:59:54.765Z,0
2016-03-19T02:00:54.736Z,0
2016-03-19T02:01:54.770Z,0
2016-03-19T02:02:54.756Z,0
2016-03-19T02:03:54.744Z,0
2016-03-19T02:04:54.747Z,0
2016-03-19T02:05:54.750Z,0
2016-03-19T02:06:54.580Z,0
2016-03-19T02:07:54.738Z,0
2016-03-19T02:08:54.726Z,0
2016-03-19T02:09:54.697Z,0
2016-03-19T02:10:54.606Z,0
2016-03-19T02:11:54.703Z,0
2016-03-19T02:12:54.689Z,0
2016-03-19T02:13:54.708Z,0
2016-03-19T02:14:54.694Z,0
2016-03-19T02:15:54.714Z,0
2016-03-19T02:16:54.716Z,0
2016-03-19T02:17:54.687Z,0
2016-03-19T02:18:54.674Z,0
2016-03-19T02:19:54.693Z,0
2016-03-19T02:20:54.695Z,0
2016-03-19T02:21:54.682Z,0
2016-03-19T02:22:54.685Z,0
2016-03-19T02:23:54.657Z,0
2016-03-19T02:24:54.518Z,0
2016-03-19T02:25:54.678Z,0
2016-03-19T02:26:54.649Z,0
2016-03-19T02:27:54.652Z,0
2016-03-19T02:28:54.639Z,0
2016-03-19T02:29:54.641Z,0
2016-03-19T02:30:54.628Z,0
2016-03-19T02:31:54.631Z,0
2016-03-19T02:32:54.603Z,0
2016-03-19T02:33:54.606Z,0
2016-03-19T02:34:54.624Z,0
2016-03-19T02:35:54.626Z,0
2016-03-19T02:36:54.613Z,0
2016-03-19T02:37:54.631Z,0
2016-03-19T02:38:54.634Z,0
2016-03-19T02:39:54.606Z,0
2016-03-19T02:40:54.608Z,0
2016-03-19T02:41:54.564Z,0
2016-03-19T02:42:54.552Z,0
2016-03-19T02:43:54.555Z,0
2016-03-19T02:44:54.572Z,0
2016-03-19T02:45:54.560Z,0
2016-03-19T02:46:54.578Z,0
2016-03-19T02:47:54.549Z,0
2016-03-19T02:48:54.552Z,0
2016-03-19T02:49:54.539Z,0
2016-03-19T02:50:54.558Z,0
2016-03-19T02:51:54.513Z,0
2016-03-19T02:52:54.531Z,0
2016-03-19T02:53:54.549Z,0
2016-03-19T02:54:54.521Z,0
2016-03-19T02:55:54.540Z,0
2016-03-19T02:56:54.495Z,0
2016-03-19T02:57:54.514Z,0
2016-03-19T02:58:54.485Z,0
2016-03-19T02:59:54.472Z,0
2016-03-19T03:00:54.507Z,0
2016-03-19T03:01:54.462Z,0
2016-03-19T03:02:54.449Z,0
2016-03-19T03:03:54.467Z,0
2016-03-19T03:04:54.454Z,0
2016-03-19T03:05:54.473Z,0
2016-03-19T03:06:54.444Z,0
2016-03-19T03:07:54.431Z,0
2016-03-19T03:08:54.450Z,0
2016-03-19T03:09:54.467Z,0
2016-03-19T03:10:54.455Z,0
2016-03-19T03:11:54.427Z,0
2016-03-19T03:12:54.445Z,0
2016-03-19T03:13:54.432Z,0
2016-03-19T03:14:54.434Z,0
2016-03-19T03:15:54.421Z,0
2016-03-19T03:16:54.424Z,0
2016-03-19T03:17:54.708Z,0
2016-03-19T03:18:54.398Z,0
2016-03-19T03:19:54.386Z,0
2016-03-19T03:20:54.388Z,0
2016-03-19T03:21:54.359Z,0
2016-03-19T03:22:54.362Z,0
2016-03-19T03:23:54.380Z,0
2016-03-19T03:24:54.399Z,0
2016-03-19T03:25:54.339Z,0
2016-03-19T03:26:54.373Z,0
2016-03-19T03:27:54.329Z,0
2016-03-19T03:28:54.347Z,0
2016-03-19T03:29:54.334Z,0
2016-03-19T03:30:54.353Z,0
2016-03-19T03:31:54.309Z,0
2016-03-19T03:32:54.312Z,0
2016-03-19T03:33:54.314Z,0
2016-03-19T03:34:54.301Z,0
2016-03-19T03:35:54.303Z,0
2016-03-19T03:36:54.275Z,0
2016-03-19T03:37:54.293Z,0
2016-03-19T03:38:54.281Z,0
2016-03-19T03:39:54.267Z,0
2016-03-19T03:40:54.286Z,0
2016-03-19T03:41:54.258Z,0
2016-03-19T03:42:54.276Z,0
2016-03-19T03:43:54.247Z,0
2016-03-19T03:44:54.233Z,0
2016-03-19T03:45:54.283Z,0
2016-03-19T03:46:54.255Z,0
2016-03-19T03:47:54.241Z,0
2016-03-19T03:48:54.244Z,0
2016-03-19T03:49:54.231Z,0
2016-03-19T03:50:54.047Z,0
2016-03-19T03:51:54.205Z,0
2016-03-19T03:52:54.208Z,0
2016-03-19T03:53:54.180Z,0
2016-03-19T03:54:54.182Z,0
2016-03-19T03:55:54.216Z,0
2016-03-19T03:56:54.187Z,0
2016-03-19T03:57:54.191Z,0
2016-03-19T03:58:54.178Z,0
2016-03-19T03:59:54.195Z,0
2016-03-19T04:00:54.026Z,0
2016-03-19T04:01:54.154Z,0
2016-03-19T04:02:54.204Z,0
2016-03-19T04:03:54.144Z,0
2016-03-19T04:04:54.116Z,0
2016-03-19T04:05:54.150Z,0
2016-03-19T04:06:54.120Z,0
2016-03-19T04:07:54.123Z,0
2016-03-19T04:08:54.126Z,0
2016-03-19T04:09:54.114Z,0
2016-03-19T04:10:54.131Z,0
2016-03-19T04:11:54.103Z,0
2016-03-19T04:12:53.340Z,0
2016-03-19T04:13:54.109Z,0
2016-03-19T04:14:54.096Z,0
2016-03-19T04:15:54.099Z,0
2016-03-19T04:16:54.086Z,0
2016-03-19T04:17:54.088Z,0
2016-03-19T04:18:54.075Z,0
2016-03-19T04:19:54.047Z,0
2016-03-19T04:20:54.066Z,0
2016-03-19T04:21:54.052Z,0
2016-03-19T04:22:54.023Z,0
2016-03-19T04:23:54.057Z,0
2016-03-19T04:24:54.029Z,0
2016-03-19T04:25:54.015Z,0
2016-03-19T04:26:54.019Z,0
2016-03-19T04:27:54.021Z,0
2016-03-19T04:28:53.993Z,0
2016-03-19T04:29:53.995Z,0
2016-03-19T04:30:53.998Z,0
2016-03-19T04:31:53.970Z,0
2016-03-19T04:32:53.987Z,0
2016-03-19T04:33:54.006Z,0
2016-03-19T04:34:54.024Z,0
2016-03-19T04:35:53.949Z,0
2016-03-19T04:36:53.951Z,0
2016-03-19T04:37:53.986Z,0
2016-03-19T04:38:54.036Z,0
2016-03-19T04:39:53.928Z,0
2016-03-19T04:40:53.947Z,0
2016-03-19T04:41:53.933Z,0
2016-03-19T04:42:53.968Z,0
2016-03-19T04:43:53.939Z,0
2016-03-19T04:44:53.911Z,0
2016-03-19T04:45:53.929Z,0
2016-03-19T04:46:53.900Z,0
2016-03-19T04:47:53.919Z,0
2016-03-19T04:48:53.890Z,0
2016-03-19T04:49:53.878Z,0
2016-03-19T04:50:53.880Z,0
2016-03-19T04:51:53.883Z,0
2016-03-19T04:52:53.869Z,0
2016-03-19T04:53:53.872Z,0
2016-03-19T04:54:53.891Z,0
2016-03-19T04:55:53.846Z,0
2016-03-19T04:56:53.849Z,0
2016-03-19T04:57:53.868Z,0
2016-03-19T04:58:53.839Z,0
2016-03-19T04:59:53.842Z,0
2016-03-19T05:00:53.829Z,0
2016-03-19T05:01:53.879Z,0
2016-03-19T05:02:53.819Z,0
2016-03-19T05:03:53.837Z,0
2016-03-19T05:04:53.823Z,0
2016-03-19T05:05:53.812Z,0
2016-03-19T05:06:53.814Z,0
2016-03-19T05:07:53.831Z,0
2016-03-19T05:08:53.772Z,0
2016-03-19T05:09:53.775Z,0
2016-03-19T05:10:53.793Z,0
2016-03-19T05:11:53.780Z,0
2016-03-19T05:12:53.768Z,0
2016-03-19T05:13:53.755Z,0
2016-03-19T05:14:53.789Z,0
2016-03-19T05:15:53.760Z,0
2016-03-19T05:16:53.731Z,0
2016-03-19T05:17:53.749Z,0
2016-03-19T05:18:53.768Z,0
2016-03-19T05:19:53.738Z,0
2016-03-19T05:20:53.695Z,0
2016-03-19T05:21:53.713Z,0
2016-03-19T05:22:53.685Z,0
2016-03-19T05:23:53.718Z,0
2016-03-19T05:24:53.722Z,0
2016-03-19T05:25:53.708Z,5
2016-03-19T05:26:53.679Z,5
2016-03-19T05:27:53.699Z,5
2016-03-19T05:28:53.670Z,5
2016-03-19T05:29:53.688Z,5
2016-03-19T05:30:53.675Z,5
2016-03-19T05:31:53.693Z,5
2016-03-19T05:32:53.649Z,5
2016-03-19T05:33:53.636Z,10
2016-03-19T05:34:53.640Z,10
2016-03-19T05:35:53.626Z,10
2016-03-19T05:36:53.457Z,10
2016-03-19T05:37:53.662Z,15
2016-03-19T05:38:53.603Z,15
2016-03-19T05:39:53.590Z,15
2016-03-19T05:40:53.623Z,15
2016-03-19T05:41:53.595Z,15
2016-03-19T05:42:53.597Z,15
2016-03-19T05:43:53.570Z,20
2016-03-19T05:44:53.634Z,20
2016-03-19T05:45:53.559Z,20
2016-03-19T05:46:53.562Z,20
2016-03-19T05:47:53.392Z,20
2016-03-19T05:48:53.599Z,20
2016-03-19T05:49:53.538Z,20
2016-03-19T05:50:53.542Z,20
2016-03-19T05:51:53.560Z,20
2016-03-19T05:52:53.531Z,15
2016-03-19T05:53:53.533Z,15
2016-03-19T05:54:53.521Z,15
2016-03-19T05:55:53.508Z,15
2016-03-19T05:56:53.510Z,15
2016-03-19T05:57:53.482Z,15
2016-03-19T05:58:53.485Z,15
2016-03-19T05:59:53.504Z,15
2016-03-19T06:00:53.506Z,20
2016-03-19T06:01:53.492Z,20
2016-03-19T06:02:53.480Z,20
2016-03-19T06:03:53.482Z,20
2016-03-19T06:04:53.438Z,20
2016-03-19T06:05:53.487Z,20
2016-03-19T06:06:53.568Z,20
2016-03-19T06:07:53.478Z,20
2016-03-19T06:08:53.417Z,20
2016-03-19T06:09:53.421Z,20
2016-03-19T06:10:53.423Z,20
2016-03-19T06:11:53.441Z,20
2016-03-19T06:12:53.414Z,25
2016-03-19T06:13:53.431Z,25
2016-03-19T06:14:53.419Z,25
2016-03-19T06:15:53.389Z,25
2016-03-19T06:16:53.408Z,25
2016-03-19T06:17:53.395Z,25
2016-03-19T06:18:53.413Z,25
2016-03-19T06:19:53.416Z,25
2016-03-19T06:20:53.388Z,25
2016-03-19T06:21:53.375Z,25
2016-03-19T06:22:53.361Z,25
2016-03-19T06:23:53.380Z,25
2016-03-19T06:24:53.366Z,25
2016-03-19T06:25:53.370Z,30
2016-03-19T06:26:53.341Z,30
2016-03-19T06:27:53.328Z,25
2016-03-19T06:28:53.315Z,25
2016-03-19T06:29:53.302Z,25
2016-03-19T06:30:53.355Z,25
2016-03-19T06:31:53.342Z,30
2016-03-19T06:32:53.329Z,30
2016-03-19T06:33:53.301Z,30
2016-03-19T06:34:53.318Z,30
2016-03-19T06:35:53.290Z,30
2016-03-19T06:36:53.277Z,30
2016-03-19T06:37:53.279Z,30
2016-03-19T06:38:53.298Z,30
2016-03-19T06:39:53.284Z,30
2016-03-19T06:40:53.335Z,30
2016-03-19T06:41:53.290Z,30
2016-03-19T06:42:53.247Z,30
2016-03-19T06:43:53.265Z,35
2016-03-19T06:44:53.267Z,35
2016-03-19T06:45:53.255Z,35
2016-03-19T06:46:53.272Z,40
2016-03-19T06:47:53.229Z,40
2016-03-19T06:48:53.216Z,45
2016-03-19T06:49:53.203Z,45
2016-03-19T06:50:53.268Z,50
2016-03-19T06:51:53.224Z,50
2016-03-19T06:52:53.258Z,50
2016-03-19T06:53:53.182Z,50
2016-03-19T06:54:53.200Z,50
2016-03-19T06:55:53.203Z,50
2016-03-19T06:56:53.174Z,50
2016-03-19T06:57:53.224Z,50
2016-03-19T06:58:53.180Z,50
2016-03-19T06:59:53.152Z,50
2016-03-19T07:00:53.154Z,50
2016-03-19T07:01:53.173Z,50
2016-03-19T07:02:53.159Z,50
2016-03-19T07:03:53.147Z,50
2016-03-19T07:04:53.118Z,50
2016-03-19T07:05:52.996Z,50
2016-03-19T07:06:53.155Z,50
2016-03-19T07:07:53.126Z,50
2016-03-19T07:08:53.129Z,50
2016-03-19T07:09:53.116Z,50
2016-03-19T07:10:53.134Z,55
2016-03-19T07:11:53.121Z,55
2016-03-19T07:12:53.061Z,55
2016-03-19T07:13:53.111Z,50
2016-03-19T07:14:53.114Z,55
2016-03-19T07:15:53.100Z,55
2016-03-19T07:16:52.948Z,55
2016-03-19T07:17:53.075Z,55
2016-03-19T07:18:53.094Z,55
2016-03-19T07:19:53.080Z,55
2016-03-19T07:20:53.083Z,55
2016-03-19T07:21:53.086Z,55
2016-03-19T07:22:53.073Z,60
2016-03-19T07:23:53.044Z,60
2016-03-19T07:24:53.063Z,60
2016-03-19T07:25:53.050Z,60
2016-03-19T07:26:52.896Z,65
2016-03-19T07:27:53.243Z,65
2016-03-19T07:28:53.058Z,70
2016-03-19T07:29:53.061Z,65
2016-03-19T07:30:53.047Z,70
2016-03-19T07:31:53.019Z,70
2016-03-19T07:32:53.007Z,70
2016-03-19T07:33:53.024Z,70
2016-03-19T07:34:53.027Z,75
2016-03-19T07:35:53.015Z,70
2016-03-19T07:36:53.017Z,70
2016-03-19T07:37:53.020Z,70
2016-03-19T07:38:53.007Z,75
2016-03-19T07:39:52.993Z,75
2016-03-19T07:40:52.996Z,75
2016-03-19T07:41:52.967Z,75
2016-03-19T07:42:52.768Z,75
2016-03-19T07:43:52.957Z,75
2016-03-19T07:44:52.960Z,75
2016-03-19T07:45:52.978Z,75
2016-03-19T07:46:52.778Z,75
2016-03-19T07:47:52.953Z,75
2016-03-19T07:48:52.986Z,75
2016-03-19T07:49:52.942Z,75
2016-03-19T07:50:52.961Z,75
2016-03-19T07:51:52.933Z,75
2016-03-19T07:52:52.810Z,75
2016-03-19T07:53:52.922Z,75
2016-03-19T07:54:52.768Z,75
2016-03-19T07:55:52.911Z,75
2016-03-19T07:56:52.913Z,75
2016-03-19T07:57:52.932Z,80
2016-03-19T07:58:52.935Z,80
2016-03-19T07:59:52.907Z,80
2016-03-19T08:00:52.909Z,80
2016-03-19T08:01:52.896Z,80
2016-03-19T08:02:52.883Z,80
2016-03-19T08:03:52.901Z,80
2016-03-19T08:04:52.749Z,80
2016-03-19T08:05:52.876Z,80
2016-03-19T08:06:52.879Z,80
2016-03-19T08:07:52.865Z,80
2016-03-19T08:08:52.868Z,85
2016-03-19T08:09:52.870Z,85
2016-03-19T08:10:52.858Z,85
2016-03-19T08:11:52.845Z,80
2016-03-19T08:12:52.895Z,80
2016-03-19T08:13:52.726Z,80
2016-03-19T08:14:52.885Z,80
2016-03-19T08:15:52.856Z,80
2016-03-19T08:16:52.687Z,80
2016-03-19T08:17:52.845Z,80
2016-03-19T08:18:52.864Z,80
2016-03-19T08:19:52.836Z,75
2016-03-19T08:20:52.823Z,75
2016-03-19T08:21:52.825Z,70
2016-03-19T08:22:52.797Z,75
2016-03-19T08:23:52.815Z,75
2016-03-19T08:24:52.864Z,75
2016-03-19T08:25:52.805Z,75
2016-03-19T08:26:52.839Z,70
2016-03-19T08:27:52.811Z,70
2016-03-19T08:28:52.813Z,70
2016-03-19T08:29:52.768Z,70
2016-03-19T08:30:52.771Z,65
2016-03-19T08:31:52.774Z,65
2016-03-19T08:32:52.824Z,65
2016-03-19T08:33:52.780Z,65
2016-03-19T08:34:52.783Z,70
2016-03-19T08:35:52.754Z,70
2016-03-19T08:36:52.756Z,70
2016-03-19T08:37:52.790Z,70
2016-03-19T08:38:52.762Z,75
2016-03-19T08:39:52.764Z,80
2016-03-19T08:40:52.767Z,80
2016-03-19T08:41:52.754Z,85
2016-03-19T08:42:52.741Z,90
2016-03-19T08:43:52.775Z,95
2016-03-19T08:44:52.731Z,95
2016-03-19T08:45:52.734Z,95
2016-03-19T08:46:52.751Z,95
2016-03-19T08:47:52.723Z,100
2016-03-19T08:48:52.694Z,100
2016-03-19T08:49:52.714Z,100
2016-03-19T08:50:52.700Z,100
2016-03-19T08:51:52.702Z,100
2016-03-19T08:52:52.706Z,100
2016-03-19T08:53:52.708Z,100
2016-03-19T08:54:52.742Z,105
2016-03-19T08:55:52.682Z,110
2016-03-19T08:56:52.670Z,110
2016-03-19T08:57:52.703Z,110
2016-03-19T08:58:52.674Z,105
2016-03-19T08:59:52.678Z,105
2016-03-19T09:00:52.680Z,105
2016-03-19T09:01:52.667Z,110
2016-03-19T09:02:52.654Z,115
2016-03-19T09:03:52.657Z,115
2016-03-19T09:04:52.644Z,115
2016-03-19T09:05:52.646Z,115
2016-03-19T09:06:52.650Z,120
2016-03-19T09:07:52.637Z,115
2016-03-19T09:08:52.624Z,115
2016-03-19T09:09:52.626Z,115
2016-03-19T09:10:52.629Z,120
2016-03-19T09:11:52.631Z,120
2016-03-19T09:12:52.618Z,120
2016-03-19T09:13:52.652Z,120
2016-03-19T09:14:52.609Z,120
2016-03-19T09:15:52.611Z,120
2016-03-19T09:16:52.614Z,120
2016-03-19T09:17:52.601Z,120
2016-03-19T09:18:52.603Z,120
2016-03-19T09:19:52.434Z,120
2016-03-19T09:20:52.592Z,120
2016-03-19T09:21:52.581Z,120
2016-03-19T09:22:52.583Z,120
2016-03-19T09:23:52.601Z,120
2016-03-19T09:24:52.588Z,120
2016-03-19T09:25:52.591Z,120
2016-03-19T09:26:52.578Z,120
2016-03-19T09:27:52.580Z,115
2016-03-19T09:28:52.583Z,115
2016-03-19T09:29:52.555Z,115
2016-03-19T09:30:52.527Z,115
2016-03-19T09:31:52.544Z,115
2016-03-19T09:32:52.547Z,110
2016-03-19T09:33:52.566Z,105
2016-03-19T09:34:52.568Z,105
2016-03-19T09:35:52.555Z,105
2016-03-19T09:36:52.527Z,115
2016-03-19T09:37:52.530Z,120
2016-03-19T09:38:52.548Z,120
2016-03-19T09:39:52.551Z,125
2016-03-19T09:40:52.522Z,130
2016-03-19T09:41:52.540Z,130
2016-03-19T09:42:52.559Z,135
2016-03-19T09:43:52.499Z,135
2016-03-19T09:44:52.548Z,135
2016-03-19T09:45:52.504Z,135
2016-03-19T09:46:52.491Z,130
2016-03-19T09:47:52.510Z,130
2016-03-19T09:48:52.497Z,130
2016-03-19T09:49:52.500Z,135
2016-03-19T09:50:52.503Z,135
2016-03-19T09:51:52.505Z,135
2016-03-19T09:52:52.492Z,130
2016-03-19T09:53:52.494Z,125
2016-03-19T09:54:52.497Z,120
2016-03-19T09:55:52.500Z,115
2016-03-19T09:56:52.502Z,110
2016-03-19T09:57:52.489Z,105
2016-03-19T09:59:05.227Z,105
2016-03-19T09:59:52.495Z,105
2016-03-19T10:00:52.467Z,105
2016-03-19T10:01:52.313Z,105
2016-03-19T10:03:05.191Z,105
2016-03-19T10:03:52.458Z,105
2016-03-19T10:04:52.477Z,110
2016-03-19T10:05:52.464Z,110
2016-03-19T10:06:52.452Z,110
2016-03-19T10:07:52.454Z,105
2016-03-19T10:08:53.566Z,110
2016-03-19T10:09:52.428Z,115
2016-03-19T10:10:52.462Z,120
2016-03-19T10:11:52.434Z,120
2016-03-19T10:12:52.421Z,115
2016-03-19T10:13:52.471Z,110
2016-03-19T10:14:52.443Z,110
2016-03-19T10:15:52.399Z,115
2016-03-19T10:16:52.370Z,110
2016-03-19T10:17:52.357Z,110
2016-03-19T10:18:52.359Z,115
2016-03-19T10:19:52.356Z,115
2016-03-19T10:20:52.337Z,115
2016-03-19T10:21:52.304Z,115
2016-03-19T10:22:52.301Z,115
2016-03-19T10:23:52.361Z,115
2016-03-19T10:24:52.298Z,120
2016-03-19T10:25:52.283Z,120
2016-03-19T10:26:52.300Z,115
2016-03-19T10:27:52.301Z,115
2016-03-19T10:28:52.271Z,115
2016-03-19T10:29:52.287Z,120
2016-03-19T10:30:52.258Z,120
2016-03-19T10:31:52.260Z,115
2016-03-19T10:32:52.262Z,115
2016-03-19T10:33:52.233Z,115
2016-03-19T10:34:52.298Z,120
2016-03-19T10:35:52.254Z,120
2016-03-19T10:36:52.240Z,120
2016-03-19T10:37:52.226Z,120
2016-03-19T10:38:52.229Z,120
2016-03-19T10:39:52.216Z,120
2016-03-19T10:40:52.219Z,120
2016-03-19T10:41:52.221Z,115
2016-03-19T10:42:52.192Z,115
2016-03-19T10:43:52.211Z,115
2016-03-19T10:44:52.183Z,115
2016-03-19T10:45:52.248Z,115
2016-03-19T10:46:52.219Z,115
2016-03-19T10:47:52.206Z,115
2016-03-19T10:48:52.240Z,115
2016-03-19T10:49:52.180Z,115
2016-03-19T10:50:52.199Z,115
2016-03-19T10:51:52.185Z,115
2016-03-19T10:52:52.188Z,120
2016-03-19T10:53:52.144Z,115
2016-03-19T10:54:52.210Z,115
2016-03-19T10:55:52.166Z,110
2016-03-19T10:56:52.168Z,110
2016-03-19T10:57:52.187Z,110
2016-03-19T10:58:52.142Z,105
2016-03-19T10:59:52.145Z,105
2016-03-19T11:00:52.148Z,110
2016-03-19T11:01:52.150Z,115
2016-03-19T11:02:52.153Z,115
2016-03-19T11:03:52.156Z,115
2016-03-19T11:04:52.158Z,115
2016-03-19T11:05:52.161Z,115
2016-03-19T11:06:52.132Z,120
2016-03-19T11:07:52.134Z,125
2016-03-19T11:08:52.137Z,125
2016-03-19T11:09:52.140Z,125
2016-03-19T11:10:52.112Z,120
2016-03-19T11:11:52.130Z,120
2016-03-19T11:12:52.133Z,125
2016-03-19T11:13:52.120Z,130
2016-03-19T11:14:52.107Z,130
2016-03-19T11:15:52.125Z,135
2016-03-19T11:16:52.128Z,140
2016-03-19T11:17:52.115Z,140
2016-03-19T11:18:52.133Z,145
2016-03-19T11:19:52.088Z,150
2016-03-19T11:20:52.092Z,150
2016-03-19T11:21:52.094Z,145
2016-03-19T11:22:52.113Z,145
2016-03-19T11:23:52.115Z,140
2016-03-19T11:24:52.087Z,145
2016-03-19T11:25:52.105Z,145
2016-03-19T11:26:52.092Z,145
2016-03-19T11:27:52.111Z,145
2016-03-19T11:28:52.098Z,140
2016-03-19T11:29:52.101Z,140
2016-03-19T11:30:52.087Z,140
2016-03-19T11:31:55.090Z,145
2016-03-19T11:32:52.092Z,145
2016-03-19T11:33:51.939Z,140
2016-03-19T11:34:52.067Z,135
2016-03-19T11:35:52.117Z,135
2016-03-19T11:36:52.073Z,135
2016-03-19T11:37:52.060Z,135
2016-03-19T11:38:52.062Z,135
2016-03-19T11:39:52.050Z,130
2016-03-19T11:40:52.067Z,130
2016-03-19T11:41:52.070Z,135
2016-03-19T11:42:52.041Z,140
2016-03-19T11:43:51.997Z,140
2016-03-19T11:44:51.296Z,130
2016-03-19T11:45:52.049Z,130
2016-03-19T11:46:52.069Z,130
2016-03-19T11:47:52.117Z,135
2016-03-19T11:48:52.074Z,140
2016-03-19T11:49:52.077Z,135
2016-03-19T11:50:52.063Z,140
2016-03-19T11:51:52.018Z,145
2016-03-19T11:52:52.053Z,145
2016-03-19T11:53:51.883Z,150
2016-03-19T11:54:52.043Z,155
2016-03-19T11:55:52.029Z,165
2016-03-19T11:56:52.048Z,185
2016-03-19T11:57:52.019Z,200
2016-03-19T11:58:51.881Z,210
2016-03-19T11:59:52.056Z,225
2016-03-19T12:00:52.059Z,240
2016-03-19T12:01:52.029Z,240
2016-03-19T12:02:52.018Z,240
2016-03-19T12:03:52.035Z,235
2016-03-19T12:04:52.038Z,225
2016-03-19T12:05:52.009Z,215
2016-03-19T12:06:52.012Z,205
2016-03-19T12:07:52.062Z,200
2016-03-19T12:08:51.986Z,195
2016-03-19T12:09:51.223Z,190
2016-03-19T12:10:52.054Z,190
2016-03-19T12:11:51.979Z,190
2016-03-19T12:12:52.014Z,190
2016-03-19T12:13:51.906Z,185
2016-03-19T12:14:51.987Z,180
2016-03-19T12:15:51.989Z,185
2016-03-19T12:16:52.055Z,185
2016-03-19T12:17:52.026Z,185
2016-03-19T12:18:52.076Z,185
2016-03-19T12:19:51.969Z,180
2016-03-19T12:20:52.035Z,180
2016-03-19T12:21:52.021Z,180
2016-03-19T12:22:52.008Z,175
2016-03-19T12:23:51.980Z,170
2016-03-19T12:24:51.999Z,170
2016-03-19T12:25:52.016Z,170
2016-03-19T12:26:52.003Z,170
2016-03-19T12:27:51.975Z,170
2016-03-19T12:28:51.821Z,170
2016-03-19T12:29:51.996Z,170
2016-03-19T12:30:52.030Z,175
2016-03-19T12:31:51.970Z,175
2016-03-19T12:32:51.988Z,170
2016-03-19T12:33:51.975Z,160
2016-03-19T12:34:51.994Z,160
2016-03-19T12:35:51.981Z,160
2016-03-19T12:36:51.998Z,155
2016-03-19T12:37:51.986Z,155
2016-03-19T12:38:52.004Z,145
2016-03-19T12:39:51.992Z,145
2016-03-19T12:40:51.995Z,145
2016-03-19T12:41:51.997Z,145
2016-03-19T12:42:51.953Z,140
2016-03-19T12:43:52.064Z,145
2016-03-19T12:44:52.006Z,145
2016-03-19T12:45:51.945Z,145
2016-03-19T12:46:51.994Z,145
2016-03-19T12:47:51.983Z,145
2016-03-19T12:48:51.985Z,145
2016-03-19T12:49:51.972Z,145
2016-03-19T12:50:51.991Z,145
2016-03-19T12:51:51.993Z,145
2016-03-19T12:52:51.963Z,150
2016-03-19T12:53:51.952Z,150
2016-03-19T12:54:51.954Z,155
2016-03-19T12:55:51.957Z,155
2016-03-19T12:56:51.959Z,155
2016-03-19T12:57:51.962Z,155
2016-03-19T12:58:51.965Z,150
2016-03-19T12:59:51.982Z,150
2016-03-19T13:00:52.096Z,150
2016-03-19T13:01:52.066Z,145
2016-03-19T13:02:51.944Z,145
2016-03-19T13:03:51.931Z,145
2016-03-19T13:04:51.965Z,145
2016-03-19T13:05:51.984Z,145
2016-03-19T13:06:51.939Z,145
2016-03-19T13:07:51.989Z,150
2016-03-19T13:08:51.960Z,150
2016-03-19T13:09:51.994Z,150
2016-03-19T13:10:51.951Z,155
2016-03-19T13:11:51.953Z,155
2016-03-19T13:12:51.800Z,160
2016-03-19T13:13:51.958Z,160
2016-03-19T13:14:51.976Z,160
2016-03-19T13:15:51.917Z,160
2016-03-19T13:16:51.950Z,160
2016-03-19T13:17:51.969Z,155
2016-03-19T13:18:51.941Z,150
2016-03-19T13:19:51.943Z,150
2016-03-19T13:20:51.946Z,150
2016-03-19T13:21:51.933Z,145
2016-03-19T13:22:51.935Z,145
2016-03-19T13:23:51.797Z,150
2016-03-19T13:24:51.957Z,150
2016-03-19T13:25:51.944Z,155
2016-03-19T13:26:51.946Z,155
2016-03-19T13:27:51.948Z,155
2016-03-19T13:28:51.935Z,155
2016-03-19T13:29:51.923Z,155
2016-03-19T13:30:51.941Z,155
2016-03-19T13:31:51.944Z,150
2016-03-19T13:32:51.962Z,145
2016-03-19T13:33:51.934Z,150
2016-03-19T13:34:51.904Z,150
2016-03-19T13:35:51.924Z,150
2016-03-19T13:36:51.957Z,150
2016-03-19T13:37:51.945Z,150
2016-03-19T13:38:51.931Z,145
2016-03-19T13:39:51.950Z,145
2016-03-19T13:40:51.921Z,150
2016-03-19T13:41:51.924Z,150
2016-03-19T13:42:51.959Z,145
2016-03-19T13:43:51.945Z,140
2016-03-19T13:44:52.026Z,140
2016-03-19T13:45:51.967Z,140
2016-03-19T13:46:51.922Z,140
2016-03-19T13:47:51.877Z,140
2016-03-19T13:48:51.911Z,140
2016-03-19T13:49:51.945Z,140
2016-03-19T13:50:51.917Z,145
2016-03-19T13:51:51.905Z,145
2016-03-19T13:52:51.939Z,145
2016-03-19T13:53:51.924Z,140
2016-03-19T13:54:51.912Z,140
2016-03-19T13:55:51.899Z,140
2016-03-19T13:56:51.777Z,145
2016-03-19T13:57:51.873Z,145
2016-03-19T13:58:51.907Z,145
2016-03-19T13:59:51.910Z,145
2016-03-19T14:00:51.928Z,140
2016-03-19T14:01:54.885Z,140
2016-03-19T14:02:51.949Z,140
2016-03-19T14:03:51.921Z,140
2016-03-19T14:04:51.877Z,140
2016-03-19T14:05:51.910Z,140
2016-03-19T14:06:51.882Z,140
2016-03-19T14:07:51.900Z,135
2016-03-19T14:08:51.871Z,135
2016-03-19T14:09:51.890Z,130
2016-03-19T14:10:51.893Z,130
2016-03-19T14:11:51.895Z,130
2016-03-19T14:12:51.898Z,125
2016-03-19T14:13:51.885Z,125
2016-03-19T14:14:51.903Z,125
2016-03-19T14:15:51.890Z,125